< < Back
Terminal Aerodrome Forecast


Current Version              Previous Versions:   1  2  3  4  5  6  7  8  9  

Terminal Aerodrome Forecast

673
FTUS42 KILM 022336
TAFILM
TAF

AMD L
 TD TO CLD VIS AND WIND TIL 021100=

Latest METAR

678
SAUS70 KWBC 030300 RRI
MTRILM
METAR KILM 030253Z AUTO 00000KT 10SM FEW020 26/22 A2994 RMK AO2 SLP139
T02560222 55001


USA.gov is the U.S. government's official web portal to all federal, state and local government web resources and services.